Wales, Kentucky
Current Conditions -  °F | °C
As of 5:35 PM on Tuesday 21 Oct 2014 (Local Time) from KPBX Reporting Station
Overcast Overcast  
Wind Chill: 50°   Ceiling: 4700
Heat Index: 50°   Visibility: 10mi
Dew Point: 40°   Wind: 10mph
Humidity: 66%   Direction: 310°NW
Pressure: 30.04"   Gusts: NA
Location:  37.3022°N, 82.6547°W
Report Text: KPBX 212135Z AUTO 31009KT 10SM OVC047 10/04 A3004 RMK AO2 T01020042
Loading
Personal Weather Stations






























Interactive Weather Map
Tropical Storm Tracking
New forecast layout! Learn more

10-Day Weather Forecast

Advertisements
Track Severe Weather on mobile